createdAt,value
2022-11-04T00:03:22.240Z,7.90
2022-11-04T00:07:24.083Z,8.57
2022-11-04T00:11:24.875Z,11.43
2022-11-04T00:15:42.079Z,8.43
2022-11-04T00:19:29.777Z,8.70
2022-11-04T00:23:30.525Z,7.63
2022-11-04T00:27:35.756Z,7.07
2022-11-04T00:31:49.553Z,7.53
2022-11-04T00:35:32.666Z,10.33
2022-11-04T00:39:16.450Z,9.60
2022-11-04T00:43:00.461Z,7.77
2022-11-04T00:46:48.732Z,6.83
2022-11-04T00:50:38.182Z,5.67
2022-11-04T00:54:32.593Z,6.17
2022-11-04T00:58:19.105Z,6.70
2022-11-04T01:02:01.967Z,5.83
2022-11-04T01:05:44.323Z,8.53
2022-11-04T01:09:26.737Z,11.57
2022-11-04T01:13:16.184Z,11.70
2022-11-04T01:17:00.916Z,5.83
2022-11-04T01:20:52.385Z,9.00
2022-11-04T01:24:39.537Z,6.53
2022-11-04T01:28:25.849Z,7.90
2022-11-04T01:32:08.154Z,8.85
2022-11-04T01:35:51.878Z,6.83
2022-11-04T01:39:36.296Z,10.03
2022-11-04T01:43:22.782Z,9.83
2022-11-04T01:47:05.665Z,7.37
2022-11-04T01:50:52.287Z,11.23
2022-11-04T01:54:35.692Z,9.13
2022-11-04T01:58:21.135Z,6.80
2022-11-04T02:02:06.702Z,10.00
2022-11-04T02:05:49.208Z,8.05
2022-11-04T02:09:32.713Z,10.97
2022-11-04T02:13:17.494Z,5.83
2022-11-04T02:17:13.324Z,7.30
2022-11-04T02:21:23.408Z,7.83
2022-11-04T02:25:39.039Z,7.77
2022-11-04T02:29:45.078Z,8.10
2022-11-04T02:34:00.993Z,6.43
2022-11-04T02:38:05.021Z,10.00
2022-11-04T02:41:57.804Z,6.23
2022-11-04T02:46:18.327Z,7.87
2022-11-04T02:50:10.343Z,6.93
2022-11-04T02:54:38.453Z,7.20
2022-11-04T02:58:58.340Z,10.63
2022-11-04T03:02:55.728Z,5.97
2022-11-04T03:06:39.721Z,9.40
2022-11-04T03:10:30.488Z,10.10
2022-11-04T03:14:25.777Z,10.00
2022-11-04T03:18:30.817Z,7.28
2022-11-04T03:22:30.860Z,7.87
2022-11-04T03:26:32.683Z,7.10
2022-11-04T03:30:20.041Z,10.03
2022-11-04T03:34:05.027Z,8.47
2022-11-04T03:37:48.687Z,9.00
2022-11-04T03:41:45.858Z,8.63
2022-11-04T03:45:33.552Z,7.90
2022-11-04T03:49:17.298Z,8.33
2022-11-04T03:53:01.705Z,7.47
2022-11-04T03:57:20.488Z,10.23
2022-11-04T04:01:23.712Z,10.63
2022-11-04T04:05:32.008Z,8.30
2022-11-04T04:09:23.234Z,11.00
2022-11-04T04:13:25.569Z,9.00
2022-11-04T04:17:16.569Z,9.67
2022-11-04T04:21:03.016Z,11.47
2022-11-04T04:29:15.569Z,9.73
2022-11-04T04:33:25.575Z,12.40
2022-11-04T04:37:45.161Z,10.20
2022-11-04T04:42:09.096Z,10.27
2022-11-04T04:46:05.522Z,13.63
2022-11-04T04:50:04.016Z,16.25
2022-11-04T04:54:02.832Z,16.30
2022-11-04T04:57:46.495Z,16.43
2022-11-04T05:01:38.198Z,15.80
2022-11-04T05:05:23.271Z,17.30
2022-11-04T05:09:15.020Z,16.90
2022-11-04T05:13:16.195Z,19.10
2022-11-04T05:21:17.191Z,19.73
2022-11-04T05:24:59.287Z,21.97
2022-11-04T05:28:44.646Z,22.17
2022-11-04T05:32:31.712Z,19.50
2022-11-04T05:36:20.879Z,18.87
2022-11-04T05:40:08.780Z,19.60
2022-11-04T05:44:10.200Z,16.10
2022-11-04T05:48:03.843Z,17.20
2022-11-04T05:51:49.613Z,16.93
2022-11-04T05:55:56.950Z,14.20
2022-11-04T05:59:38.844Z,13.50
2022-11-04T06:03:23.416Z,18.00
2022-11-04T06:07:06.229Z,14.20
2022-11-04T06:10:48.118Z,18.17
2022-11-04T06:14:30.039Z,19.63
2022-11-04T06:18:19.588Z,19.20
2022-11-04T06:22:06.520Z,18.47
2022-11-04T06:25:54.381Z,17.87
2022-11-04T06:29:42.031Z,16.00
2022-11-04T06:33:26.322Z,28.10
2022-11-04T06:37:10.827Z,20.60
2022-11-04T06:40:57.962Z,16.40
2022-11-04T06:44:57.947Z,18.60
2022-11-04T06:48:44.485Z,16.43
2022-11-04T06:52:42.141Z,17.57
2022-11-04T06:56:27.264Z,17.17
2022-11-04T07:00:23.828Z,19.47
2022-11-04T07:04:06.911Z,15.23
2022-11-04T07:07:55.168Z,23.87
2022-11-04T07:11:37.698Z,16.02
2022-11-04T07:15:27.447Z,16.73
2022-11-04T07:19:11.856Z,15.87
2022-11-04T07:22:57.518Z,15.77
2022-11-04T07:26:42.896Z,16.23
2022-11-04T07:30:25.880Z,13.97
2022-11-04T07:34:59.308Z,14.77
2022-11-04T07:38:42.881Z,15.80
2022-11-04T07:42:25.803Z,15.40
2022-11-04T07:46:15.492Z,18.07
2022-11-04T07:50:06.710Z,14.47
2022-11-04T07:53:55.771Z,13.93
2022-11-04T07:57:48.976Z,22.00
2022-11-04T08:01:31.993Z,15.73
2022-11-04T08:05:15.008Z,14.27
2022-11-04T08:08:59.251Z,14.50
2022-11-04T08:12:41.305Z,17.50
2022-11-04T08:16:29.935Z,17.73
2022-11-04T08:20:15.267Z,22.53
2022-11-04T08:23:59.261Z,14.30
2022-11-04T08:27:44.012Z,16.73
2022-11-04T08:31:29.143Z,12.37
2022-11-04T08:35:12.048Z,16.53
2022-11-04T08:38:55.753Z,16.23
2022-11-04T08:42:41.773Z,12.50
2022-11-04T08:46:26.325Z,16.15
2022-11-04T08:50:35.838Z,17.07
2022-11-04T08:58:44.408Z,14.87
2022-11-04T09:06:56.772Z,15.67
2022-11-04T09:10:47.494Z,12.07
2022-11-04T09:14:57.303Z,10.50
2022-11-04T09:18:50.858Z,11.27
2022-11-04T09:22:51.326Z,14.67
2022-11-04T09:26:48.739Z,8.50
2022-11-04T09:43:34.784Z,7.20
2022-11-04T09:47:23.748Z,9.93
2022-11-04T10:03:43.427Z,6.93
2022-11-04T10:22:03.023Z,10.20
2022-11-04T10:26:14.845Z,18.60
2022-11-04T10:30:01.695Z,7.63
2022-11-04T10:34:29.217Z,7.10
2022-11-04T10:38:43.360Z,18.38
2022-11-04T10:42:49.106Z,6.22
2022-11-04T10:47:08.706Z,11.65
2022-11-04T10:51:12.376Z,7.95
2022-11-04T10:54:55.197Z,9.43
2022-11-04T11:04:34.408Z,6.45
2022-11-04T11:08:50.418Z,7.13
2022-11-04T11:12:57.344Z,4.90
2022-11-04T11:21:10.201Z,7.20
2022-11-04T11:24:53.472Z,6.68
2022-11-04T11:29:13.080Z,4.90
2022-11-04T11:33:25.913Z,6.00
2022-11-04T11:42:03.956Z,9.73
2022-11-04T11:45:50.894Z,7.43
2022-11-04T11:53:40.740Z,7.10
2022-11-04T11:57:43.330Z,7.40
2022-11-04T12:01:39.695Z,8.13
2022-11-04T12:10:50.386Z,7.00
2022-11-04T12:18:57.296Z,10.48
2022-11-04T12:27:08.563Z,5.18
2022-11-04T12:31:13.174Z,6.25
2022-11-04T12:35:18.310Z,6.57
2022-11-04T12:40:13.515Z,8.20
2022-11-04T12:44:28.791Z,8.40
2022-11-04T12:52:55.544Z,7.65
2022-11-04T12:57:07.832Z,8.15
2022-11-04T13:02:08.035Z,9.07
2022-11-04T13:16:25.424Z,5.55
2022-11-04T13:24:49.173Z,9.73
2022-11-04T13:28:43.018Z,11.60
2022-11-04T13:32:59.281Z,9.18
2022-11-04T14:02:23.606Z,4.85
2022-11-04T14:06:52.584Z,5.93
2022-11-04T14:10:45.990Z,13.48
2022-11-04T14:14:27.995Z,9.48
2022-11-04T14:18:29.111Z,5.78
2022-11-04T14:26:58.927Z,7.75
2022-11-04T14:30:53.579Z,6.50
2022-11-04T14:38:31.028Z,7.88
2022-11-04T14:42:38.555Z,6.03
2022-11-04T14:46:33.022Z,4.78
2022-11-04T14:50:21.824Z,7.30
2022-11-04T14:54:09.509Z,2.55
2022-11-04T14:57:55.655Z,4.45
2022-11-04T15:14:10.032Z,7.35
2022-11-04T15:18:09.560Z,7.40
2022-11-04T15:21:56.679Z,8.33
2022-11-04T15:25:45.999Z,10.33
2022-11-04T15:29:28.205Z,18.40
2022-11-04T15:33:17.613Z,10.02
2022-11-04T15:37:05.584Z,10.87
2022-11-04T15:40:47.964Z,9.97
2022-11-04T15:44:33.867Z,8.23
2022-11-04T15:48:30.930Z,10.52
2022-11-04T15:52:20.866Z,7.93
2022-11-04T15:56:04.600Z,8.23
2022-11-04T15:59:58.022Z,8.57
2022-11-04T16:03:47.015Z,8.63
2022-11-04T16:07:38.191Z,8.83
2022-11-04T16:11:21.737Z,9.27
2022-11-04T16:15:04.641Z,8.07
2022-11-04T16:18:56.218Z,8.10
2022-11-04T16:22:41.769Z,10.07
2022-11-04T16:26:26.588Z,9.05
2022-11-04T16:34:27.737Z,10.90
2022-11-04T16:42:30.906Z,11.93
2022-11-04T16:50:17.225Z,8.98
2022-11-04T16:53:59.123Z,7.03
2022-11-04T16:57:41.354Z,8.27
2022-11-04T17:01:23.584Z,10.00
2022-11-04T17:05:05.943Z,13.37
2022-11-04T17:08:48.022Z,10.47
2022-11-04T17:12:29.968Z,14.60
2022-11-04T17:16:14.181Z,11.20
2022-11-04T17:19:56.391Z,9.73
2022-11-04T17:23:38.530Z,9.83
2022-11-04T17:27:24.498Z,7.27
2022-11-04T17:35:08.123Z,8.30
2022-11-04T17:38:52.290Z,14.07
2022-11-04T17:43:00.778Z,26.27
2022-11-04T17:46:50.262Z,41.17
2022-11-04T17:50:35.881Z,32.43
2022-11-04T17:54:20.423Z,30.67
2022-11-04T17:58:04.317Z,25.10
2022-11-04T18:01:49.090Z,26.73
2022-11-04T18:05:42.021Z,24.53
2022-11-04T18:09:37.584Z,20.40
2022-11-04T18:13:21.678Z,15.80
2022-11-04T18:17:06.296Z,11.67
2022-11-04T18:21:09.749Z,12.37
2022-11-04T18:24:58.505Z,12.30
2022-11-04T18:28:42.008Z,9.03
2022-11-04T18:32:27.651Z,14.73
2022-11-04T18:36:21.014Z,15.38
2022-11-04T18:40:06.963Z,21.03
2022-11-04T18:43:51.136Z,19.23
2022-11-04T18:47:36.885Z,15.40
2022-11-04T18:51:23.277Z,11.03
2022-11-04T18:55:10.497Z,10.65
2022-11-04T18:58:56.037Z,14.13
2022-11-04T19:02:38.302Z,14.03
2022-11-04T19:06:28.903Z,11.97
2022-11-04T19:10:14.398Z,16.93
2022-11-04T19:13:59.258Z,16.43
2022-11-04T19:17:41.219Z,11.67
2022-11-04T19:21:27.528Z,19.03
2022-11-04T19:25:10.984Z,14.38
2022-11-04T19:28:53.108Z,13.80
2022-11-04T19:32:35.561Z,13.20
2022-11-04T19:36:20.953Z,12.77
2022-11-04T19:40:07.864Z,21.50
2022-11-04T19:43:52.428Z,15.50
2022-11-04T19:51:37.840Z,20.73
2022-11-04T19:55:23.285Z,19.50
2022-11-04T19:59:07.673Z,24.93
2022-11-04T20:02:57.855Z,17.77
2022-11-04T20:06:41.123Z,18.33
2022-11-04T20:10:27.061Z,18.23
2022-11-04T20:14:09.050Z,17.15
2022-11-04T20:17:51.252Z,41.10
2022-11-04T20:21:35.746Z,23.87
2022-11-04T20:25:18.123Z,23.33
2022-11-04T20:29:00.387Z,29.07
2022-11-04T20:32:47.038Z,23.57
2022-11-04T20:36:29.415Z,16.60
2022-11-04T20:40:14.541Z,21.07
2022-11-04T20:43:58.969Z,19.70
2022-11-04T20:47:42.153Z,22.93
2022-11-04T20:51:28.839Z,18.73
2022-11-04T20:55:12.673Z,17.30
2022-11-04T20:58:59.266Z,16.27
2022-11-04T21:02:42.377Z,18.97
2022-11-04T21:06:25.121Z,21.80
2022-11-04T21:10:23.565Z,29.00
2022-11-04T21:14:11.185Z,20.53
2022-11-04T21:17:59.546Z,18.03
2022-11-04T21:21:43.248Z,17.37
2022-11-04T21:25:25.196Z,17.17
2022-11-04T21:29:09.381Z,22.47
2022-11-04T21:32:55.240Z,19.13
2022-11-04T21:36:37.871Z,32.65
2022-11-04T21:40:19.787Z,21.30
2022-11-04T21:44:07.400Z,17.37
2022-11-04T21:47:50.542Z,15.43
2022-11-04T21:51:35.332Z,16.53
2022-11-04T21:55:17.775Z,14.57
2022-11-04T21:59:05.089Z,20.73
2022-11-04T22:02:52.195Z,13.13
2022-11-04T22:06:35.746Z,14.83
2022-11-04T22:10:21.468Z,19.20
2022-11-04T22:14:05.837Z,25.73
2022-11-04T22:17:48.215Z,20.47
2022-11-04T22:21:33.981Z,24.13
2022-11-04T22:25:18.440Z,18.58
2022-11-04T22:29:07.394Z,20.30
2022-11-04T22:32:53.898Z,17.37
2022-11-04T22:40:18.129Z,17.03
2022-11-04T22:44:00.073Z,22.57
2022-11-04T22:47:42.316Z,16.30
2022-11-04T22:51:25.806Z,12.93
2022-11-04T22:55:10.294Z,16.00
2022-11-04T22:59:00.712Z,15.93
2022-11-04T23:02:44.185Z,17.23
2022-11-04T23:06:27.727Z,14.63
2022-11-04T23:10:28.557Z,12.10
2022-11-04T23:14:31.793Z,10.83
2022-11-04T23:18:33.426Z,14.97
2022-11-04T23:22:33.588Z,11.97
2022-11-04T23:26:15.694Z,14.50
2022-11-04T23:30:21.083Z,10.67
2022-11-04T23:34:22.012Z,13.60
2022-11-04T23:38:04.622Z,12.43
2022-11-04T23:42:04.929Z,15.80
2022-11-04T23:46:05.809Z,12.53
2022-11-04T23:50:06.340Z,13.33
2022-11-04T23:54:06.619Z,16.90
2022-11-04T23:58:07.077Z,12.67
